sensor_id;sensor_type;location;lat;lon;timestamp;pressure;altitude;pressure_sealevel;temperature
79492;BMP180;68950;53.098;18.032;2023-04-25T08:01:09;99985.20;;;
79492;BMP180;68950;53.098;18.032;2023-04-25T08:03:36;99986.80;;;
79492;BMP180;68950;53.098;18.032;2023-04-25T08:06:03;99988.20;;;
79492;BMP180;68950;53.098;18.032;2023-04-25T08:08:29;99984.00;;;
79492;BMP180;68950;53.098;18.032;2023-04-25T08:10:56;99983.80;;;
79492;BMP180;68950;53.098;18.032;2023-04-25T08:13:22;99991.20;;;
79492;BMP180;68950;53.098;18.032;2023-04-25T08:15:49;99988.60;;;
79492;BMP180;68950;53.098;18.032;2023-04-25T08:18:16;99990.80;;;
79492;BMP180;68950;53.098;18.032;2023-04-25T08:20:42;99993.00;;;
79492;BMP180;68950;53.098;18.032;2023-04-25T08:23:09;99996.00;;;
79492;BMP180;68950;53.098;18.032;2023-04-25T08:25:37;100002.20;;;
79492;BMP180;68950;53.098;18.032;2023-04-25T08:28:05;99998.40;;;
79492;BMP180;68950;53.098;18.032;2023-04-25T08:30:32;99999.40;;;
79492;BMP180;68950;53.098;18.032;2023-04-25T08:32:59;99999.60;;;
79492;BMP180;68950;53.098;18.032;2023-04-25T08:35:26;100006.20;;;
79492;BMP180;68950;53.098;18.032;2023-04-25T08:37:52;100009.00;;;
79492;BMP180;68950;53.098;18.032;2023-04-25T08:40:22;100010.40;;;
79492;BMP180;68950;53.098;18.032;2023-04-25T08:42:53;100007.00;;;
79492;BMP180;68950;53.098;18.032;2023-04-25T08:45:20;100006.20;;;
79492;BMP180;68950;53.098;18.032;2023-04-25T08:47:47;100008.80;;;
79492;BMP180;68950;53.098;18.032;2023-04-25T08:50:17;100007.40;;;
79492;BMP180;68950;53.098;18.032;2023-04-25T08:52:45;100008.60;;;
79492;BMP180;68950;53.098;18.032;2023-04-25T08:55:15;100011.40;;;
79492;BMP180;68950;53.098;18.032;2023-04-25T08:57:43;100004.60;;;
79492;BMP180;68950;53.098;18.032;2023-04-25T09:00:12;100009.80;;;
79492;BMP180;68950;53.098;18.032;2023-04-25T09:02:40;100008.20;;;
79492;BMP180;68950;53.098;18.032;2023-04-25T09:05:09;100010.80;;;
79492;BMP180;68950;53.098;18.032;2023-04-25T09:07:38;100015.60;;;
79492;BMP180;68950;53.098;18.032;2023-04-25T09:10:05;100014.00;;;
79492;BMP180;68950;53.098;18.032;2023-04-25T09:12:32;100016.80;;;
79492;BMP180;68950;53.098;18.032;2023-04-25T09:15:07;100020.60;;;
79492;BMP180;68950;53.098;18.032;2023-04-25T09:17:34;100024.80;;;
79492;BMP180;68950;53.098;18.032;2023-04-25T09:20:12;100033.80;;;
79492;BMP180;68950;53.098;18.032;2023-04-25T09:22:39;100030.80;;;
79492;BMP180;68950;53.098;18.032;2023-04-25T09:25:11;100031.40;;;
79492;BMP180;68950;53.098;18.032;2023-04-25T09:27:53;100030.80;;;
79492;BMP180;68950;53.098;18.032;2023-04-25T09:30:30;100030.40;;;
79492;BMP180;68950;53.098;18.032;2023-04-25T09:33:06;100029.20;;;
79492;BMP180;68950;53.098;18.032;2023-04-25T09:35:38;100028.60;;;
79492;BMP180;68950;53.098;18.032;2023-04-25T09:38:09;100030.20;;;
79492;BMP180;68950;53.098;18.032;2023-04-25T09:40:46;100032.40;;;
79492;BMP180;68950;53.098;18.032;2023-04-25T09:43:21;100031.20;;;
79492;BMP180;68950;53.098;18.032;2023-04-25T09:45:49;100036.80;;;
79492;BMP180;68950;53.098;18.032;2023-04-25T09:48:20;100037.40;;;
79492;BMP180;68950;53.098;18.032;2023-04-25T09:51:12;100037.60;;;
79492;BMP180;68950;53.098;18.032;2023-04-25T09:53:46;100038.80;;;
79492;BMP180;68950;53.098;18.032;2023-04-25T09:56:13;100040.40;;;
79492;BMP180;68950;53.098;18.032;2023-04-25T09:58:40;100046.60;;;
79492;BMP180;68950;53.098;18.032;2023-04-25T10:01:10;100051.60;;;
79492;BMP180;68950;53.098;18.032;2023-04-25T10:03:39;100049.60;;;
79492;BMP180;68950;53.098;18.032;2023-04-25T10:06:19;100048.80;;;
79492;BMP180;68950;53.098;18.032;2023-04-25T10:08:51;100050.80;;;
79492;BMP180;68950;53.098;18.032;2023-04-25T10:11:18;100048.00;;;
79492;BMP180;68950;53.098;18.032;2023-04-25T10:13:45;100049.60;;;
79492;BMP180;68950;53.098;18.032;2023-04-25T10:16:14;100050.40;;;
79492;BMP180;68950;53.098;18.032;2023-04-25T10:18:40;100047.80;;;
79492;BMP180;68950;53.098;18.032;2023-04-25T10:21:07;100055.60;;;
79492;BMP180;68950;53.098;18.032;2023-04-25T10:23:34;100057.00;;;
79492;BMP180;68950;53.098;18.032;2023-04-25T10:26:04;100056.60;;;
79492;BMP180;68950;53.098;18.032;2023-04-25T10:28:59;100053.00;;;
79492;BMP180;68950;53.098;18.032;2023-04-25T10:31:27;100057.60;;;
79492;BMP180;68950;53.098;18.032;2023-04-25T10:33:54;100055.20;;;
79492;BMP180;68950;53.098;18.032;2023-04-25T10:36:23;100058.40;;;
79492;BMP180;68950;53.098;18.032;2023-04-25T10:38:51;100064.40;;;
79492;BMP180;68950;53.098;18.032;2023-04-25T10:41:20;100068.60;;;
79492;BMP180;68950;53.098;18.032;2023-04-25T10:43:49;100066.20;;;
79492;BMP180;68950;53.098;18.032;2023-04-25T10:46:25;100062.40;;;
79492;BMP180;68950;53.098;18.032;2023-04-25T10:49:01;100059.40;;;
79492;BMP180;68950;53.098;18.032;2023-04-25T10:51:31;100058.40;;;
79492;BMP180;68950;53.098;18.032;2023-04-25T10:54:03;100058.00;;;
79492;BMP180;68950;53.098;18.032;2023-04-25T10:56:41;100060.80;;;
79492;BMP180;68950;53.098;18.032;2023-04-25T10:59:11;100059.00;;;
79492;BMP180;68950;53.098;18.032;2023-04-25T11:01:41;100061.20;;;
79492;BMP180;68950;53.098;18.032;2023-04-25T11:04:21;100062.40;;;
79492;BMP180;68950;53.098;18.032;2023-04-25T11:07:10;100062.60;;;
79492;BMP180;68950;53.098;18.032;2023-04-25T11:09:40;100059.40;;;
79492;BMP180;68950;53.098;18.032;2023-04-25T11:12:09;100060.20;;;
79492;BMP180;68950;53.098;18.032;2023-04-25T11:14:37;100061.20;;;
79492;BMP180;68950;53.098;18.032;2023-04-25T11:17:04;100066.20;;;
79492;BMP180;68950;53.098;18.032;2023-04-25T11:19:32;100068.60;;;
79492;BMP180;68950;53.098;18.032;2023-04-25T11:22:01;100071.40;;;
79492;BMP180;68950;53.098;18.032;2023-04-25T11:24:33;100073.40;;;
79492;BMP180;68950;53.098;18.032;2023-04-25T11:27:02;100078.80;;;
79492;BMP180;68950;53.098;18.032;2023-04-25T11:29:32;100080.60;;;
79492;BMP180;68950;53.098;18.032;2023-04-25T11:31:59;100080.20;;;
79492;BMP180;68950;53.098;18.032;2023-04-25T11:34:28;100081.40;;;
79492;BMP180;68950;53.098;18.032;2023-04-25T11:37:03;100076.20;;;
79492;BMP180;68950;53.098;18.032;2023-04-25T11:39:30;100077.00;;;
79492;BMP180;68950;53.098;18.032;2023-04-25T11:41:56;100081.60;;;
79492;BMP180;68950;53.098;18.032;2023-04-25T11:44:23;100079.20;;;
79492;BMP180;68950;53.098;18.032;2023-04-25T11:46:50;100081.80;;;
79492;BMP180;68950;53.098;18.032;2023-04-25T11:49:16;100083.40;;;
79492;BMP180;68950;53.098;18.032;2023-04-25T11:51:48;100082.00;;;
79492;BMP180;68950;53.098;18.032;2023-04-25T11:54:15;100084.80;;;
79492;BMP180;68950;53.098;18.032;2023-04-25T11:56:44;100085.40;;;
79492;BMP180;68950;53.098;18.032;2023-04-25T11:59:12;100078.80;;;
79492;BMP180;68950;53.098;18.032;2023-04-25T12:01:48;100082.80;;;
79492;BMP180;68950;53.098;18.032;2023-04-25T12:04:22;100088.20;;;
79492;BMP180;68950;53.098;18.032;2023-04-25T12:06:53;100089.80;;;
79492;BMP180;68950;53.098;18.032;2023-04-25T12:09:32;100089.20;;;
79492;BMP180;68950;53.098;18.032;2023-04-25T12:12:00;100087.40;;;
79492;BMP180;68950;53.098;18.032;2023-04-25T12:14:34;100090.00;;;
79492;BMP180;68950;53.098;18.032;2023-04-25T12:17:03;100087.40;;;
79492;BMP180;68950;53.098;18.032;2023-04-25T12:19:36;100093.80;;;
79492;BMP180;68950;53.098;18.032;2023-04-25T12:22:19;100094.20;;;
79492;BMP180;68950;53.098;18.032;2023-04-25T12:24:46;100088.60;;;
79492;BMP180;68950;53.098;18.032;2023-04-25T12:27:16;100088.60;;;
79492;BMP180;68950;53.098;18.032;2023-04-25T12:29:54;100091.00;;;
79492;BMP180;68950;53.098;18.032;2023-04-25T12:32:22;100085.20;;;
79492;BMP180;68950;53.098;18.032;2023-04-25T12:34:48;100078.80;;;
79492;BMP180;68950;53.098;18.032;2023-04-25T12:37:15;100081.80;;;
79492;BMP180;68950;53.098;18.032;2023-04-25T12:39:42;100087.20;;;
79492;BMP180;68950;53.098;18.032;2023-04-25T12:42:09;100085.00;;;
79492;BMP180;68950;53.098;18.032;2023-04-25T12:44:38;100088.60;;;
79492;BMP180;68950;53.098;18.032;2023-04-25T12:47:05;100088.40;;;
79492;BMP180;68950;53.098;18.032;2023-04-25T12:49:32;100093.20;;;
79492;BMP180;68950;53.098;18.032;2023-04-25T12:51:59;100090.20;;;
79492;BMP180;68950;53.098;18.032;2023-04-25T12:54:26;100094.00;;;
79492;BMP180;68950;53.098;18.032;2023-04-25T12:56:53;100086.60;;;
79492;BMP180;68950;53.098;18.032;2023-04-25T12:59:19;100089.80;;;
79492;BMP180;68950;53.098;18.032;2023-04-25T13:01:47;100081.80;;;
79492;BMP180;68950;53.098;18.032;2023-04-25T13:04:14;100076.00;;;
79492;BMP180;68950;53.098;18.032;2023-04-25T13:06:41;100074.60;;;
79492;BMP180;68950;53.098;18.032;2023-04-25T13:09:08;100079.20;;;
79492;BMP180;68950;53.098;18.032;2023-04-25T13:11:34;100077.20;;;
79492;BMP180;68950;53.098;18.032;2023-04-25T13:14:01;100083.60;;;
79492;BMP180;68950;53.098;18.032;2023-04-25T13:16:28;100083.20;;;
79492;BMP180;68950;53.098;18.032;2023-04-25T13:18:55;100084.60;;;
79492;BMP180;68950;53.098;18.032;2023-04-25T13:21:22;100088.80;;;
79492;BMP180;68950;53.098;18.032;2023-04-25T13:23:49;100085.20;;;
79492;BMP180;68950;53.098;18.032;2023-04-25T13:26:16;100090.00;;;
79492;BMP180;68950;53.098;18.032;2023-04-25T13:28:43;100088.80;;;
79492;BMP180;68950;53.098;18.032;2023-04-25T13:31:09;100091.40;;;
79492;BMP180;68950;53.098;18.032;2023-04-25T13:33:36;100092.60;;;
79492;BMP180;68950;53.098;18.032;2023-04-25T13:36:03;100087.60;;;
79492;BMP180;68950;53.098;18.032;2023-04-25T13:38:30;100085.80;;;
79492;BMP180;68950;53.098;18.032;2023-04-25T13:40:56;100082.00;;;
79492;BMP180;68950;53.098;18.032;2023-04-25T13:43:23;100083.80;;;
79492;BMP180;68950;53.098;18.032;2023-04-25T13:45:50;100082.60;;;
79492;BMP180;68950;53.098;18.032;2023-04-25T13:48:18;100086.40;;;
79492;BMP180;68950;53.098;18.032;2023-04-25T13:50:45;100086.20;;;
79492;BMP180;68950;53.098;18.032;2023-04-25T13:53:12;100086.60;;;
79492;BMP180;68950;53.098;18.032;2023-04-25T13:55:39;100089.60;;;
79492;BMP180;68950;53.098;18.032;2023-04-25T13:58:06;100090.00;;;
79492;BMP180;68950;53.098;18.032;2023-04-25T14:00:37;100090.20;;;
79492;BMP180;68950;53.098;18.032;2023-04-25T14:03:05;100091.80;;;
79492;BMP180;68950;53.098;18.032;2023-04-25T14:05:35;100094.80;;;
79492;BMP180;68950;53.098;18.032;2023-04-25T14:08:09;100097.00;;;
79492;BMP180;68950;53.098;18.032;2023-04-25T14:10:36;100094.60;;;
79492;BMP180;68950;53.098;18.032;2023-04-25T14:13:04;100096.80;;;
79492;BMP180;68950;53.098;18.032;2023-04-25T14:15:32;100102.80;;;
79492;BMP180;68950;53.098;18.032;2023-04-25T14:18:00;100114.40;;;
79492;BMP180;68950;53.098;18.032;2023-04-25T14:20:27;100117.20;;;
79492;BMP180;68950;53.098;18.032;2023-04-25T14:22:54;100126.60;;;
79492;BMP180;68950;53.098;18.032;2023-04-25T14:25:23;100130.60;;;
79492;BMP180;68950;53.098;18.032;2023-04-25T14:27:50;100140.80;;;
79492;BMP180;68950;53.098;18.032;2023-04-25T14:30:18;100140.40;;;
79492;BMP180;68950;53.098;18.032;2023-04-25T14:34:13;100146.20;;;
79492;BMP180;68950;53.098;18.032;2023-04-25T14:36:39;100141.20;;;
79492;BMP180;68950;53.098;18.032;2023-04-25T14:39:06;100139.80;;;
79492;BMP180;68950;53.098;18.032;2023-04-25T14:41:33;100137.00;;;
79492;BMP180;68950;53.098;18.032;2023-04-25T14:43:59;100141.40;;;
79492;BMP180;68950;53.098;18.032;2023-04-25T14:46:26;100143.40;;;
79492;BMP180;68950;53.098;18.032;2023-04-25T14:48:53;100146.20;;;
79492;BMP180;68950;53.098;18.032;2023-04-25T14:51:22;100148.00;;;
79492;BMP180;68950;53.098;18.032;2023-04-25T14:53:49;100149.00;;;
79492;BMP180;68950;53.098;18.032;2023-04-25T14:56:16;100156.20;;;
79492;BMP180;68950;53.098;18.032;2023-04-25T14:58:43;100159.00;;;
79492;BMP180;68950;53.098;18.032;2023-04-25T15:01:09;100161.20;;;
79492;BMP180;68950;53.098;18.032;2023-04-25T15:03:36;100163.60;;;
79492;BMP180;68950;53.098;18.032;2023-04-25T15:06:03;100166.00;;;
79492;BMP180;68950;53.098;18.032;2023-04-25T15:08:30;100168.00;;;
79492;BMP180;68950;53.098;18.032;2023-04-25T15:10:57;100169.80;;;
79492;BMP180;68950;53.098;18.032;2023-04-25T15:13:25;100167.60;;;
79492;BMP180;68950;53.098;18.032;2023-04-25T15:15:51;100168.20;;;
79492;BMP180;68950;53.098;18.032;2023-04-25T15:18:21;100172.20;;;
79492;BMP180;68950;53.098;18.032;2023-04-25T15:20:50;100174.40;;;
79492;BMP180;68950;53.098;18.032;2023-04-25T15:23:19;100176.20;;;
79492;BMP180;68950;53.098;18.032;2023-04-25T15:25:46;100170.80;;;
79492;BMP180;68950;53.098;18.032;2023-04-25T15:28:13;100176.80;;;
79492;BMP180;68950;53.098;18.032;2023-04-25T15:30:43;100179.80;;;
79492;BMP180;68950;53.098;18.032;2023-04-25T15:33:10;100178.40;;;
79492;BMP180;68950;53.098;18.032;2023-04-25T15:35:36;100176.00;;;
79492;BMP180;68950;53.098;18.032;2023-04-25T15:38:03;100176.80;;;
79492;BMP180;68950;53.098;18.032;2023-04-25T15:40:30;100177.60;;;
79492;BMP180;68950;53.098;18.032;2023-04-25T15:42:57;100180.80;;;
79492;BMP180;68950;53.098;18.032;2023-04-25T15:45:25;100178.20;;;
79492;BMP180;68950;53.098;18.032;2023-04-25T15:47:55;100178.20;;;
79492;BMP180;68950;53.098;18.032;2023-04-25T15:50:23;100181.20;;;
79492;BMP180;68950;53.098;18.032;2023-04-25T15:52:51;100179.40;;;
79492;BMP180;68950;53.098;18.032;2023-04-25T15:55:19;100176.00;;;
79492;BMP180;68950;53.098;18.032;2023-04-25T15:57:48;100179.40;;;
79492;BMP180;68950;53.098;18.032;2023-04-25T16:00:17;100186.40;;;
79492;BMP180;68950;53.098;18.032;2023-04-25T16:02:45;100181.00;;;
79492;BMP180;68950;53.098;18.032;2023-04-25T16:05:13;100182.80;;;
79492;BMP180;68950;53.098;18.032;2023-04-25T16:07:42;100181.80;;;
79492;BMP180;68950;53.098;18.032;2023-04-25T16:10:10;100180.80;;;
79492;BMP180;68950;53.098;18.032;2023-04-25T16:12:41;100183.80;;;
79492;BMP180;68950;53.098;18.032;2023-04-25T16:15:08;100184.80;;;
79492;BMP180;68950;53.098;18.032;2023-04-25T16:17:35;100186.00;;;
79492;BMP180;68950;53.098;18.032;2023-04-25T16:20:02;100191.00;;;
79492;BMP180;68950;53.098;18.032;2023-04-25T16:22:37;100190.60;;;
79492;BMP180;68950;53.098;18.032;2023-04-25T16:25:05;100190.40;;;
79492;BMP180;68950;53.098;18.032;2023-04-25T16:27:33;100191.80;;;
79492;BMP180;68950;53.098;18.032;2023-04-25T16:30:08;100191.20;;;
79492;BMP180;68950;53.098;18.032;2023-04-25T16:32:36;100193.40;;;
79492;BMP180;68950;53.098;18.032;2023-04-25T16:35:04;100189.40;;;
79492;BMP180;68950;53.098;18.032;2023-04-25T16:37:31;100191.00;;;
79492;BMP180;68950;53.098;18.032;2023-04-25T16:39:57;100192.60;;;
79492;BMP180;68950;53.098;18.032;2023-04-25T16:42:24;100200.40;;;
79492;BMP180;68950;53.098;18.032;2023-04-25T16:44:51;100195.40;;;
79492;BMP180;68950;53.098;18.032;2023-04-25T16:47:17;100199.40;;;
79492;BMP180;68950;53.098;18.032;2023-04-25T16:49:44;100197.60;;;
79492;BMP180;68950;53.098;18.032;2023-04-25T16:52:11;100194.80;;;
79492;BMP180;68950;53.098;18.032;2023-04-25T16:54:38;100196.60;;;
79492;BMP180;68950;53.098;18.032;2023-04-25T16:57:04;100197.40;;;
79492;BMP180;68950;53.098;18.032;2023-04-25T16:59:32;100197.40;;;
79492;BMP180;68950;53.098;18.032;2023-04-25T17:01:58;100201.60;;;
79492;BMP180;68950;53.098;18.032;2023-04-25T17:04:25;100207.60;;;
79492;BMP180;68950;53.098;18.032;2023-04-25T17:06:52;100206.60;;;
79492;BMP180;68950;53.098;18.032;2023-04-25T17:09:19;100202.80;;;
79492;BMP180;68950;53.098;18.032;2023-04-25T17:11:46;100205.20;;;
79492;BMP180;68950;53.098;18.032;2023-04-25T17:14:13;100208.80;;;
79492;BMP180;68950;53.098;18.032;2023-04-25T17:16:40;100211.80;;;
79492;BMP180;68950;53.098;18.032;2023-04-25T17:19:07;100212.00;;;
79492;BMP180;68950;53.098;18.032;2023-04-25T17:21:34;100214.40;;;
79492;BMP180;68950;53.098;18.032;2023-04-25T17:24:01;100217.40;;;
79492;BMP180;68950;53.098;18.032;2023-04-25T17:26:31;100220.80;;;
79492;BMP180;68950;53.098;18.032;2023-04-25T17:31:12;100227.20;;;
79492;BMP180;68950;53.098;18.032;2023-04-25T17:33:39;100226.20;;;
79492;BMP180;68950;53.098;18.032;2023-04-25T17:36:06;100222.20;;;
79492;BMP180;68950;53.098;18.032;2023-04-25T17:38:33;100235.20;;;
79492;BMP180;68950;53.098;18.032;2023-04-25T17:41:02;100235.80;;;
79492;BMP180;68950;53.098;18.032;2023-04-25T17:43:30;100233.20;;;
79492;BMP180;68950;53.098;18.032;2023-04-25T17:45:57;100240.80;;;
79492;BMP180;68950;53.098;18.032;2023-04-25T17:48:25;100244.60;;;
79492;BMP180;68950;53.098;18.032;2023-04-25T17:50:52;100247.20;;;
79492;BMP180;68950;53.098;18.032;2023-04-25T17:53:18;100249.60;;;
79492;BMP180;68950;53.098;18.032;2023-04-25T17:55:45;100249.80;;;
79492;BMP180;68950;53.098;18.032;2023-04-25T17:58:11;100255.20;;;
79492;BMP180;68950;53.098;18.032;2023-04-25T18:00:38;100255.00;;;
79492;BMP180;68950;53.098;18.032;2023-04-25T18:03:05;100260.40;;;
79492;BMP180;68950;53.098;18.032;2023-04-25T18:05:32;100262.20;;;
79492;BMP180;68950;53.098;18.032;2023-04-25T18:07:59;100266.60;;;
79492;BMP180;68950;53.098;18.032;2023-04-25T18:10:26;100270.80;;;
79492;BMP180;68950;53.098;18.032;2023-04-25T18:12:53;100279.20;;;
79492;BMP180;68950;53.098;18.032;2023-04-25T18:15:20;100283.80;;;
79492;BMP180;68950;53.098;18.032;2023-04-25T18:17:47;100288.60;;;
79492;BMP180;68950;53.098;18.032;2023-04-25T18:20:15;100292.60;;;
79492;BMP180;68950;53.098;18.032;2023-04-25T18:22:44;100296.40;;;
79492;BMP180;68950;53.098;18.032;2023-04-25T18:25:12;100299.40;;;
79492;BMP180;68950;53.098;18.032;2023-04-25T18:27:40;100300.80;;;
79492;BMP180;68950;53.098;18.032;2023-04-25T18:30:09;100306.60;;;
79492;BMP180;68950;53.098;18.032;2023-04-25T18:32:36;100310.40;;;
79492;BMP180;68950;53.098;18.032;2023-04-25T18:35:04;100319.00;;;
79492;BMP180;68950;53.098;18.032;2023-04-25T18:37:31;100321.40;;;
79492;BMP180;68950;53.098;18.032;2023-04-25T18:39:57;100320.80;;;
79492;BMP180;68950;53.098;18.032;2023-04-25T18:42:24;100334.00;;;
79492;BMP180;68950;53.098;18.032;2023-04-25T18:44:51;100335.00;;;
79492;BMP180;68950;53.098;18.032;2023-04-25T18:47:18;100339.80;;;
79492;BMP180;68950;53.098;18.032;2023-04-25T18:49:44;100339.20;;;
79492;BMP180;68950;53.098;18.032;2023-04-25T18:52:11;100342.20;;;
79492;BMP180;68950;53.098;18.032;2023-04-25T18:54:40;100344.20;;;
79492;BMP180;68950;53.098;18.032;2023-04-25T18:57:08;100346.80;;;
79492;BMP180;68950;53.098;18.032;2023-04-25T18:59:34;100350.20;;;
79492;BMP180;68950;53.098;18.032;2023-04-25T19:02:01;100349.80;;;
79492;BMP180;68950;53.098;18.032;2023-04-25T19:04:31;100355.00;;;
79492;BMP180;68950;53.098;18.032;2023-04-25T19:06:57;100359.40;;;
79492;BMP180;68950;53.098;18.032;2023-04-25T19:09:25;100364.80;;;
79492;BMP180;68950;53.098;18.032;2023-04-25T19:11:51;100370.00;;;
79492;BMP180;68950;53.098;18.032;2023-04-25T19:14:18;100370.00;;;
79492;BMP180;68950;53.098;18.032;2023-04-25T19:16:45;100370.60;;;
79492;BMP180;68950;53.098;18.032;2023-04-25T19:19:11;100371.40;;;
79492;BMP180;68950;53.098;18.032;2023-04-25T19:21:38;100375.20;;;
79492;BMP180;68950;53.098;18.032;2023-04-25T19:24:05;100372.20;;;
79492;BMP180;68950;53.098;18.032;2023-04-25T19:26:32;100378.20;;;
79492;BMP180;68950;53.098;18.032;2023-04-25T19:29:09;100374.20;;;
79492;BMP180;68950;53.098;18.032;2023-04-25T19:31:37;100376.20;;;
79492;BMP180;68950;53.098;18.032;2023-04-25T19:34:06;100375.60;;;
79492;BMP180;68950;53.098;18.032;2023-04-25T19:36:37;100373.40;;;
79492;BMP180;68950;53.098;18.032;2023-04-25T19:39:04;100376.80;;;
79492;BMP180;68950;53.098;18.032;2023-04-25T19:41:37;100382.20;;;
79492;BMP180;68950;53.098;18.032;2023-04-25T19:44:06;100383.60;;;
79492;BMP180;68950;53.098;18.032;2023-04-25T19:46:35;100385.20;;;
79492;BMP180;68950;53.098;18.032;2023-04-25T19:49:04;100387.80;;;
79492;BMP180;68950;53.098;18.032;2023-04-25T19:51:34;100391.20;;;
79492;BMP180;68950;53.098;18.032;2023-04-25T19:54:02;100393.00;;;
79492;BMP180;68950;53.098;18.032;2023-04-25T19:56:28;100389.00;;;
79492;BMP180;68950;53.098;18.032;2023-04-25T19:58:55;100392.00;;;
79492;BMP180;68950;53.098;18.032;2023-04-25T20:01:23;100390.20;;;
79492;BMP180;68950;53.098;18.032;2023-04-25T20:03:50;100394.60;;;
79492;BMP180;68950;53.098;18.032;2023-04-25T20:06:17;100400.20;;;
79492;BMP180;68950;53.098;18.032;2023-04-25T20:08:44;100398.40;;;
79492;BMP180;68950;53.098;18.032;2023-04-25T20:11:12;100395.40;;;
79492;BMP180;68950;53.098;18.032;2023-04-25T20:13:40;100397.80;;;
79492;BMP180;68950;53.098;18.032;2023-04-25T20:16:07;100399.60;;;
79492;BMP180;68950;53.098;18.032;2023-04-25T20:18:33;100399.00;;;
79492;BMP180;68950;53.098;18.032;2023-04-25T20:21:00;100407.80;;;
79492;BMP180;68950;53.098;18.032;2023-04-25T20:23:30;100403.20;;;
79492;BMP180;68950;53.098;18.032;2023-04-25T20:25:57;100404.40;;;
79492;BMP180;68950;53.098;18.032;2023-04-25T20:28:23;100407.40;;;
79492;BMP180;68950;53.098;18.032;2023-04-25T20:30:50;100408.00;;;
79492;BMP180;68950;53.098;18.032;2023-04-25T20:33:17;100409.00;;;
79492;BMP180;68950;53.098;18.032;2023-04-25T20:35:44;100407.00;;;
79492;BMP180;68950;53.098;18.032;2023-04-25T20:38:11;100411.20;;;
79492;BMP180;68950;53.098;18.032;2023-04-25T20:40:38;100412.60;;;
79492;BMP180;68950;53.098;18.032;2023-04-25T20:43:05;100411.20;;;
79492;BMP180;68950;53.098;18.032;2023-04-25T20:45:32;100408.80;;;
79492;BMP180;68950;53.098;18.032;2023-04-25T20:47:59;100415.00;;;
79492;BMP180;68950;53.098;18.032;2023-04-25T20:50:31;100419.40;;;
79492;BMP180;68950;53.098;18.032;2023-04-25T20:52:58;100420.80;;;
79492;BMP180;68950;53.098;18.032;2023-04-25T20:55:25;100421.00;;;
79492;BMP180;68950;53.098;18.032;2023-04-25T20:57:52;100424.20;;;
79492;BMP180;68950;53.098;18.032;2023-04-25T21:00:19;100425.20;;;
79492;BMP180;68950;53.098;18.032;2023-04-25T21:02:52;100423.20;;;
79492;BMP180;68950;53.098;18.032;2023-04-25T21:05:20;100421.40;;;
79492;BMP180;68950;53.098;18.032;2023-04-25T21:07:50;100422.20;;;
79492;BMP180;68950;53.098;18.032;2023-04-25T21:10:20;100423.80;;;
79492;BMP180;68950;53.098;18.032;2023-04-25T21:12:47;100426.80;;;
79492;BMP180;68950;53.098;18.032;2023-04-25T21:15:15;100424.80;;;
79492;BMP180;68950;53.098;18.032;2023-04-25T21:17:49;100422.80;;;
79492;BMP180;68950;53.098;18.032;2023-04-25T21:20:19;100420.80;;;
79492;BMP180;68950;53.098;18.032;2023-04-25T21:22:47;100414.00;;;
79492;BMP180;68950;53.098;18.032;2023-04-25T21:25:19;100419.00;;;
79492;BMP180;68950;53.098;18.032;2023-04-25T21:27:48;100424.00;;;
79492;BMP180;68950;53.098;18.032;2023-04-25T21:30:21;100422.80;;;
79492;BMP180;68950;53.098;18.032;2023-04-25T21:32:48;100422.20;;;
79492;BMP180;68950;53.098;18.032;2023-04-25T21:35:18;100422.20;;;
79492;BMP180;68950;53.098;18.032;2023-04-25T21:37:46;100422.20;;;
79492;BMP180;68950;53.098;18.032;2023-04-25T21:40:13;100422.00;;;
79492;BMP180;68950;53.098;18.032;2023-04-25T21:42:41;100422.20;;;
79492;BMP180;68950;53.098;18.032;2023-04-25T21:45:10;100421.00;;;
79492;BMP180;68950;53.098;18.032;2023-04-25T21:47:37;100418.00;;;
79492;BMP180;68950;53.098;18.032;2023-04-25T21:50:05;100419.00;;;
79492;BMP180;68950;53.098;18.032;2023-04-25T21:52:34;100416.60;;;
79492;BMP180;68950;53.098;18.032;2023-04-25T21:55:01;100412.00;;;
79492;BMP180;68950;53.098;18.032;2023-04-25T21:57:27;100416.20;;;
79492;BMP180;68950;53.098;18.032;2023-04-25T21:59:55;100415.40;;;
79492;BMP180;68950;53.098;18.032;2023-04-25T22:02:21;100418.20;;;
79492;BMP180;68950;53.098;18.032;2023-04-25T22:04:48;100420.60;;;
79492;BMP180;68950;53.098;18.032;2023-04-25T22:07:15;100422.40;;;
79492;BMP180;68950;53.098;18.032;2023-04-25T22:09:42;100426.00;;;
79492;BMP180;68950;53.098;18.032;2023-04-25T22:12:09;100429.60;;;
79492;BMP180;68950;53.098;18.032;2023-04-25T22:14:36;100427.60;;;
79492;BMP180;68950;53.098;18.032;2023-04-25T22:17:03;100428.80;;;
79492;BMP180;68950;53.098;18.032;2023-04-25T22:19:31;100431.40;;;
79492;BMP180;68950;53.098;18.032;2023-04-25T22:21:57;100428.60;;;
79492;BMP180;68950;53.098;18.032;2023-04-25T22:24:24;100426.80;;;
79492;BMP180;68950;53.098;18.032;2023-04-25T22:26:58;100430.20;;;
79492;BMP180;68950;53.098;18.032;2023-04-25T22:29:24;100433.40;;;
79492;BMP180;68950;53.098;18.032;2023-04-25T22:31:51;100431.40;;;
79492;BMP180;68950;53.098;18.032;2023-04-25T22:34:19;100433.60;;;
79492;BMP180;68950;53.098;18.032;2023-04-25T22:36:46;100432.00;;;
79492;BMP180;68950;53.098;18.032;2023-04-25T22:39:12;100433.40;;;
79492;BMP180;68950;53.098;18.032;2023-04-25T22:41:41;100432.40;;;
79492;BMP180;68950;53.098;18.032;2023-04-25T22:44:08;100432.20;;;
79492;BMP180;68950;53.098;18.032;2023-04-25T22:46:34;100427.20;;;
79492;BMP180;68950;53.098;18.032;2023-04-25T22:49:01;100426.00;;;
79492;BMP180;68950;53.098;18.032;2023-04-25T22:51:28;100425.20;;;
79492;BMP180;68950;53.098;18.032;2023-04-25T22:53:54;100423.40;;;
79492;BMP180;68950;53.098;18.032;2023-04-25T22:56:21;100427.80;;;
79492;BMP180;68950;53.098;18.032;2023-04-25T22:58:50;100426.40;;;